Time;durP1;ratioP1;P1;durP2;ratioP2;P2;SDS_P1;SDS_P2;PMS_P1;PMS_P2;Temp;Humidity;BMP_temperature;BMP_pressure;BME280_temperature;BME280_humidity;BME280_pressure;Samples;Min_cycle;Max_cycle;Signal;HPM_P1;HPM_P2
2021/07/20 00:00:09;;;;;;;11.00;4.18;;;14.90;99.90;;;;;;4993545;28;20472;-84
2021/07/20 00:02:40;;;;;;;5.45;4.10;;;15.00;99.90;;;;;;5010154;28;20133;-84
2021/07/20 00:05:08;;;;;;;5.88;3.50;;;15.00;99.90;;;;;;4994564;28;20078;-84
2021/07/20 00:07:34;;;;;;;6.82;3.85;;;15.00;99.90;;;;;;4990762;28;20114;-84
2021/07/20 00:10:00;;;;;;;5.32;3.58;;;14.90;99.90;;;;;;5016323;28;20053;-84
2021/07/20 00:12:26;;;;;;;7.20;4.30;;;14.90;99.90;;;;;;4990366;28;20093;-84
2021/07/20 00:14:52;;;;;;;5.35;3.75;;;14.80;99.90;;;;;;4990557;28;20060;-84
2021/07/20 00:17:22;;;;;;;8.27;4.00;;;14.80;99.90;;;;;;5007124;28;20071;-84
2021/07/20 00:19:49;;;;;;;7.07;3.88;;;14.70;99.90;;;;;;5005983;28;20084;-84
2021/07/20 00:22:15;;;;;;;6.45;3.90;;;14.70;99.90;;;;;;5005986;28;20039;-84
2021/07/20 00:24:41;;;;;;;6.20;3.50;;;14.60;99.90;;;;;;4990539;28;20038;-83
2021/07/20 00:27:07;;;;;;;9.27;3.85;;;14.60;99.90;;;;;;5002773;28;20030;-84
2021/07/20 00:29:33;;;;;;;4.80;3.40;;;14.50;99.90;;;;;;4973983;28;20034;-84
2021/07/20 00:31:58;;;;;;;4.78;3.63;;;14.50;99.90;;;;;;4989773;28;20042;-84
2021/07/20 00:34:24;;;;;;;7.07;3.65;;;14.40;99.90;;;;;;5006429;28;20232;-84
2021/07/20 00:36:50;;;;;;;6.85;4.00;;;14.40;99.90;;;;;;4990691;28;20497;-84
2021/07/20 00:39:16;;;;;;;5.40;3.67;;;14.30;99.90;;;;;;4989996;28;20081;-84
2021/07/20 00:41:41;;;;;;;7.47;3.90;;;14.30;99.90;;;;;;4989740;28;20026;-85
2021/07/20 00:44:08;;;;;;;6.40;3.83;;;14.30;99.90;;;;;;5006862;28;20753;-84
2021/07/20 00:46:34;;;;;;;5.82;4.13;;;14.20;99.90;;;;;;4999341;28;20526;-84
2021/07/20 00:49:00;;;;;;;8.45;3.95;;;14.20;99.90;;;;;;4993183;28;20504;-84
2021/07/20 00:51:30;;;;;;;6.03;3.83;;;14.20;99.90;;;;;;4978011;28;20061;-84
2021/07/20 00:53:56;;;;;;;4.10;3.50;;;14.30;99.90;;;;;;4974510;28;20030;-84
2021/07/20 00:56:26;;;;;;;5.63;3.28;;;14.20;99.90;;;;;;4959437;28;20034;-84
2021/07/20 00:58:55;;;;;;;9.63;4.45;;;14.20;99.90;;;;;;5023423;28;20741;-84
2021/07/20 01:01:21;;;;;;;5.80;3.90;;;14.20;99.90;;;;;;4974093;28;20066;-83
2021/07/20 01:03:53;;;;;;;4.95;3.78;;;14.20;99.90;;;;;;4992894;28;20515;-84
2021/07/20 01:06:24;;;;;;;5.18;4.05;;;14.30;99.90;;;;;;4989832;28;20045;-85
2021/07/20 01:08:51;;;;;;;4.65;3.78;;;14.20;99.90;;;;;;5015249;28;20497;-84
2021/07/20 01:11:21;;;;;;;8.35;4.20;;;14.20;99.90;;;;;;4993616;28;20092;-84
2021/07/20 01:13:49;;;;;;;7.47;4.22;;;14.20;99.90;;;;;;4993701;28;20035;-84
2021/07/20 01:16:15;;;;;;;8.70;3.63;;;14.20;99.90;;;;;;5010629;28;20026;-84
2021/07/20 01:18:42;;;;;;;6.30;3.63;;;14.20;99.90;;;;;;4989521;28;20049;-83
2021/07/20 01:21:13;;;;;;;5.53;3.40;;;14.20;99.90;;;;;;4972829;28;20054;-83
2021/07/20 01:23:44;;;;;;;6.43;3.65;;;14.20;99.90;;;;;;4989934;28;20485;-84
2021/07/20 01:26:12;;;;;;;4.88;3.60;;;14.20;99.90;;;;;;5003760;28;20026;-83
2021/07/20 01:28:40;;;;;;;6.13;4.20;;;14.20;99.90;;;;;;4993214;28;20033;-84
2021/07/20 01:31:12;;;;;;;4.93;3.70;;;14.20;99.90;;;;;;4992411;28;20030;-84
2021/07/20 01:33:42;;;;;;;7.28;3.80;;;14.20;99.90;;;;;;5010222;28;20028;-84
2021/07/20 01:36:10;;;;;;;7.03;4.07;;;14.20;99.90;;;;;;4997056;28;20446;-84
2021/07/20 01:38:41;;;;;;;5.78;3.88;;;14.20;99.90;;;;;;4993573;28;20026;-84
2021/07/20 01:41:11;;;;;;;7.30;3.80;;;14.20;99.90;;;;;;4976500;28;20109;-84
2021/07/20 01:43:42;;;;;;;5.13;3.80;;;14.30;99.90;;;;;;4993887;28;20108;-84
2021/07/20 01:46:09;;;;;;;5.60;3.50;;;14.30;99.90;;;;;;4977510;28;20026;-84
2021/07/20 01:48:38;;;;;;;6.03;3.92;;;14.30;99.90;;;;;;5004168;28;20408;-84
2021/07/20 01:51:13;;;;;;;5.82;4.30;;;14.30;99.90;;;;;;5003454;28;20113;-84
2021/07/20 01:53:42;;;;;;;5.57;3.88;;;14.30;99.90;;;;;;4993423;28;20576;-83
2021/07/20 01:56:10;;;;;;;6.22;4.07;;;14.30;99.90;;;;;;4993363;28;20043;-85
2021/07/20 01:58:41;;;;;;;4.30;3.72;;;14.30;99.90;;;;;;5009707;28;20030;-85
2021/07/20 02:01:50;;;;;;;6.13;3.63;;;14.30;99.90;;;;;;5004288;28;20030;-85
2021/07/20 02:10:09;;;;;;;5.63;4.05;;;14.40;99.90;;;;;;4953302;28;20066;-84
2021/07/20 02:12:57;;;;;;;5.43;3.45;;;14.40;99.90;;;;;;4964980;28;20035;-84
2021/07/20 02:15:38;;;;;;;7.53;4.10;;;14.40;99.90;;;;;;4981418;28;20188;-83
2021/07/20 02:18:28;;;;;;;6.07;4.07;;;14.50;99.90;;;;;;4997679;28;20064;-84
2021/07/20 02:21:00;;;;;;;6.13;4.10;;;14.50;99.90;;;;;;4998590;28;20028;-84
2021/07/20 02:23:37;;;;;;;7.97;3.83;;;14.50;99.90;;;;;;5031831;28;20111;-84
2021/07/20 02:26:04;;;;;;;9.05;4.43;;;14.50;99.90;;;;;;4984718;28;20394;-84
2021/07/20 02:28:32;;;;;;;5.05;3.38;;;14.50;99.90;;;;;;5023849;28;20508;-84
2021/07/20 02:31:00;;;;;;;5.50;4.00;;;14.40;99.90;;;;;;4995237;28;20683;-84
2021/07/20 02:33:29;;;;;;;4.82;3.50;;;14.40;99.90;;;;;;5012064;28;20030;-84
2021/07/20 02:35:58;;;;;;;4.55;3.80;;;14.50;99.90;;;;;;5008694;28;20038;-84
2021/07/20 02:38:32;;;;;;;7.68;4.22;;;14.40;99.90;;;;;;4992418;28;20104;-84
2021/07/20 02:41:00;;;;;;;6.65;3.63;;;14.40;99.90;;;;;;5008195;28;20029;-83
2021/07/20 02:43:27;;;;;;;8.27;3.90;;;14.40;99.90;;;;;;5002762;28;20041;-84
2021/07/20 02:45:54;;;;;;;6.28;4.13;;;14.40;99.90;;;;;;4991219;28;20030;-85
2021/07/20 02:48:23;;;;;;;5.38;3.60;;;14.40;99.90;;;;;;4987770;28;20030;-84
2021/07/20 02:50:51;;;;;;;8.32;3.65;;;14.50;99.90;;;;;;4997535;28;20084;-85
2021/07/20 02:53:24;;;;;;;6.68;4.13;;;14.40;99.90;;;;;;4978914;28;20035;-84
2021/07/20 02:55:54;;;;;;;4.95;3.80;;;14.50;99.90;;;;;;5004543;28;20035;-84
2021/07/20 02:58:22;;;;;;;6.63;4.32;;;14.50;99.90;;;;;;4987517;28;20125;-84
2021/07/20 03:00:50;;;;;;;10.98;4.50;;;14.50;99.90;;;;;;5003674;28;20064;-84
2021/07/20 03:03:17;;;;;;;7.80;4.20;;;14.50;99.90;;;;;;5019511;28;20108;-85
2021/07/20 03:05:49;;;;;;;7.65;3.92;;;14.50;99.90;;;;;;4999894;28;20084;-85
2021/07/20 03:08:21;;;;;;;7.43;4.07;;;14.50;99.90;;;;;;5002547;28;20038;-84
2021/07/20 03:10:58;;;;;;;5.30;3.40;;;14.40;99.90;;;;;;4998228;28;20034;-84
2021/07/20 03:13:27;;;;;;;7.47;4.68;;;14.40;99.90;;;;;;5001664;28;20069;-83
2021/07/20 03:15:54;;;;;;;6.63;3.72;;;14.40;99.90;;;;;;4987258;28;20038;-84
2021/07/20 03:18:26;;;;;;;8.20;4.22;;;14.40;99.90;;;;;;5000032;28;20035;-85
2021/07/20 03:20:54;;;;;;;5.65;4.07;;;14.40;99.90;;;;;;4974524;28;20504;-84
2021/07/20 03:23:22;;;;;;;5.63;3.97;;;14.40;99.90;;;;;;4985864;28;20038;-84
2021/07/20 03:25:54;;;;;;;4.28;3.70;;;14.40;99.90;;;;;;4991701;28;20028;-85
2021/07/20 03:28:22;;;;;;;6.30;4.05;;;14.50;99.90;;;;;;4991918;28;20034;-84
2021/07/20 03:30:48;;;;;;;5.93;3.83;;;14.50;99.90;;;;;;5006785;28;20030;-84
2021/07/20 03:33:18;;;;;;;4.85;3.75;;;14.40;99.90;;;;;;4991590;28;20034;-84
2021/07/20 03:35:53;;;;;;;5.43;3.75;;;14.40;99.90;;;;;;4991574;28;20030;-84
2021/07/20 03:38:20;;;;;;;6.15;4.30;;;14.40;99.90;;;;;;4998370;28;20049;-84
2021/07/20 03:40:51;;;;;;;6.38;4.25;;;14.40;99.90;;;;;;5009919;28;20488;-84
2021/07/20 03:43:22;;;;;;;5.65;4.25;;;14.40;99.90;;;;;;5007825;28;20688;-84
2021/07/20 03:45:49;;;;;;;7.47;3.88;;;14.30;99.90;;;;;;5027470;28;20054;-84
2021/07/20 03:48:17;;;;;;;6.90;4.50;;;14.30;99.90;;;;;;5007841;28;20046;-84
2021/07/20 03:50:53;;;;;;;6.35;3.67;;;14.30;99.90;;;;;;5005187;28;20040;-84
2021/07/20 03:53:19;;;;;;;5.35;3.72;;;14.30;99.90;;;;;;4991355;28;20042;-85
2021/07/20 03:55:50;;;;;;;7.85;4.25;;;14.30;99.90;;;;;;5024123;28;20038;-84
2021/07/20 03:58:17;;;;;;;6.10;4.32;;;14.20;99.90;;;;;;5009073;28;20065;-85
2021/07/20 04:00:50;;;;;;;7.88;4.22;;;14.20;99.90;;;;;;5006074;28;20028;-83
2021/07/20 04:03:21;;;;;;;5.45;3.42;;;14.10;99.90;;;;;;5010051;28;20644;-84
2021/07/20 04:06:23;;;;;;;5.30;3.85;;;14.10;99.90;;;;;;5010435;28;20399;-84
2021/07/20 04:09:25;;;;;;;5.37;4.13;;;14.10;99.90;;;;;;4993289;28;20030;-84
2021/07/20 04:12:20;;;;;;;8.35;3.75;;;14.10;99.90;;;;;;4989883;28;20034;-84
2021/07/20 04:15:04;;;;;;;4.18;3.40;;;14.10;99.90;;;;;;4976609;28;20042;-84
2021/07/20 04:17:37;;;;;;;5.80;4.15;;;14.10;99.90;;;;;;4960149;28;20404;-84
2021/07/20 04:20:05;;;;;;;5.07;3.97;;;14.10;99.90;;;;;;4958003;28;20568;-84
2021/07/20 04:22:33;;;;;;;8.45;4.22;;;14.10;99.90;;;;;;4996475;28;20117;-84
2021/07/20 04:25:00;;;;;;;6.93;4.15;;;14.10;99.90;;;;;;5009915;28;20030;-84
2021/07/20 04:27:36;;;;;;;4.95;4.25;;;14.10;99.90;;;;;;4994923;28;20396;-84
2021/07/20 04:30:03;;;;;;;8.43;4.40;;;14.10;99.90;;;;;;5009458;28;20038;-85
2021/07/20 04:32:41;;;;;;;5.53;4.18;;;14.10;99.90;;;;;;4998502;28;20025;-83
2021/07/20 04:35:13;;;;;;;5.90;4.38;;;14.10;99.90;;;;;;5014299;28;20026;-84
2021/07/20 04:37:45;;;;;;;7.32;4.28;;;14.10;99.90;;;;;;4998950;28;20029;-83
2021/07/20 04:40:12;;;;;;;11.23;4.97;;;14.20;99.90;;;;;;5002658;28;20053;-83
2021/07/20 04:42:41;;;;;;;8.85;4.00;;;14.30;99.90;;;;;;4993126;28;20108;-84
2021/07/20 04:45:14;;;;;;;7.25;4.70;;;14.30;99.90;;;;;;4982608;28;20068;-84
2021/07/20 04:47:44;;;;;;;7.25;4.57;;;14.30;99.90;;;;;;4990547;28;20034;-84
2021/07/20 04:50:37;;;;;;;5.28;4.20;;;14.40;99.90;;;;;;5011260;28;20035;-84
2021/07/20 04:53:05;;;;;;;8.25;4.88;;;14.40;99.90;;;;;;5004044;28;20113;-84
2021/07/20 04:55:34;;;;;;;7.30;4.45;;;14.50;99.90;;;;;;4974345;28;20125;-84
2021/07/20 04:58:01;;;;;;;6.45;4.40;;;14.60;99.90;;;;;;4990350;28;20038;-85
2021/07/20 05:00:32;;;;;;;8.57;4.25;;;14.70;99.90;;;;;;4983898;28;20034;-85
2021/07/20 05:03:41;;;;;;;7.13;4.47;;;14.80;99.90;;;;;;5016409;28;20026;-84
2021/07/20 05:06:09;;;;;;;6.68;4.50;;;14.90;99.90;;;;;;4990092;28;20120;-84
2021/07/20 05:08:47;;;;;;;9.07;4.57;;;15.00;99.90;;;;;;4991415;28;20551;-86
2021/07/20 05:11:14;;;;;;;6.53;3.78;;;15.20;99.90;;;;;;4987290;28;20023;-84
2021/07/20 05:13:41;;;;;;;6.55;4.55;;;15.30;99.90;;;;;;4999096;28;20026;-84
2021/07/20 05:16:08;;;;;;;4.60;3.40;;;15.40;99.90;;;;;;4992403;28;20571;-84
2021/07/20 05:18:45;;;;;;;7.38;4.07;;;15.50;99.90;;;;;;4997363;28;20041;-85
2021/07/20 05:21:33;;;;;;;6.20;4.10;;;15.50;99.90;;;;;;5000569;28;20142;-86
2021/07/20 05:24:00;;;;;;;7.15;3.97;;;15.60;99.90;;;;;;4989819;28;20058;-84
2021/07/20 05:26:48;;;;;;;6.72;4.15;;;15.70;99.90;;;;;;5001566;28;20583;-85
2021/07/20 05:29:19;;;;;;;5.60;4.10;;;15.70;99.90;;;;;;4976805;28;20088;-84
2021/07/20 05:32:17;;;;;;;5.50;4.07;;;15.70;99.90;;;;;;5007274;28;20038;-85
2021/07/20 05:34:47;;;;;;;6.28;4.20;;;15.80;99.90;;;;;;5009276;28;20558;-85
2021/07/20 05:37:17;;;;;;;10.15;4.47;;;15.90;99.90;;;;;;5009676;28;20026;-84
2021/07/20 05:39:50;;;;;;;8.50;4.10;;;16.00;99.90;;;;;;4993098;28;20037;-84
2021/07/20 05:42:30;;;;;;;7.82;4.53;;;16.00;99.90;;;;;;4993937;28;20089;-84
2021/07/20 05:44:59;;;;;;;6.63;4.28;;;16.10;99.90;;;;;;4985641;28;20084;-84
2021/07/20 05:47:26;;;;;;;5.43;4.10;;;16.20;99.90;;;;;;5009457;28;20083;-85
2021/07/20 05:49:52;;;;;;;5.70;4.35;;;16.20;99.90;;;;;;5008535;28;20057;-85
2021/07/20 05:52:19;;;;;;;6.20;3.47;;;16.30;99.90;;;;;;5008341;28;20181;-85
2021/07/20 05:54:52;;;;;;;7.07;3.85;;;16.30;99.90;;;;;;5009773;28;20030;-85
2021/07/20 05:57:28;;;;;;;8.77;5.20;;;16.40;99.90;;;;;;5013678;28;20495;-85
2021/07/20 06:00:05;;;;;;;4.40;3.55;;;16.40;99.90;;;;;;5015663;28;20025;-85
2021/07/20 06:02:45;;;;;;;7.38;4.03;;;16.50;99.90;;;;;;5019386;28;20034;-85
2021/07/20 06:05:14;;;;;;;6.63;3.83;;;16.70;99.90;;;;;;4996337;28;20033;-84
2021/07/20 06:07:40;;;;;;;7.55;4.28;;;16.80;99.90;;;;;;5029071;28;20130;-85
2021/07/20 06:10:07;;;;;;;6.53;4.03;;;16.90;99.90;;;;;;4998577;28;20155;-85
2021/07/20 06:12:34;;;;;;;5.13;3.92;;;16.90;99.90;;;;;;4992279;28;20054;-86
2021/07/20 06:15:01;;;;;;;7.85;4.35;;;17.00;99.90;;;;;;4970182;28;20070;-85
2021/07/20 06:17:27;;;;;;;7.32;3.88;;;17.10;99.90;;;;;;4999820;28;20117;-85
2021/07/20 06:19:55;;;;;;;6.60;4.13;;;17.20;99.90;;;;;;4978236;28;20038;-85
2021/07/20 06:22:32;;;;;;;6.38;3.92;;;17.40;99.90;;;;;;4995142;28;20052;-84
2021/07/20 06:25:03;;;;;;;6.47;4.13;;;17.50;99.90;;;;;;5008244;28;20676;-85
2021/07/20 06:27:30;;;;;;;4.97;3.83;;;17.50;99.90;;;;;;4992871;28;20137;-85
2021/07/20 06:29:59;;;;;;;5.65;4.10;;;17.60;99.90;;;;;;4992120;28;20039;-85
2021/07/20 06:32:29;;;;;;;6.00;4.05;;;17.80;99.90;;;;;;4995537;28;20038;-84
2021/07/20 06:34:56;;;;;;;5.65;3.72;;;18.10;99.90;;;;;;5012359;28;20026;-84
2021/07/20 06:37:25;;;;;;;4.65;3.45;;;18.30;99.90;;;;;;5009661;28;20114;-84
2021/07/20 06:39:52;;;;;;;7.47;3.70;;;18.50;99.90;;;;;;4992383;28;20030;-84
2021/07/20 06:42:18;;;;;;;6.20;3.45;;;18.60;99.90;;;;;;4978634;28;20037;-84
2021/07/20 06:44:45;;;;;;;5.88;3.95;;;18.70;99.90;;;;;;4995416;28;20488;-84
2021/07/20 06:47:17;;;;;;;5.07;3.60;;;19.00;99.90;;;;;;4978416;28;20112;-84
2021/07/20 06:49:46;;;;;;;6.72;3.58;;;19.30;99.90;;;;;;5007016;28;20692;-85
2021/07/20 06:52:15;;;;;;;5.63;3.13;;;19.70;99.90;;;;;;5010354;28;20044;-85
2021/07/20 06:54:42;;;;;;;4.55;3.58;;;20.20;99.90;;;;;;5012023;28;20026;-84
2021/07/20 06:57:12;;;;;;;4.75;3.63;;;20.40;99.90;;;;;;4972690;28;20042;-84
2021/07/20 06:59:39;;;;;;;6.07;3.78;;;20.70;99.90;;;;;;4975619;28;20452;-84
2021/07/20 07:02:08;;;;;;;9.15;4.28;;;20.80;99.90;;;;;;4993857;28;20031;-87
2021/07/20 07:04:46;;;;;;;6.88;3.33;;;21.10;99.90;;;;;;4977408;28;20038;-86
2021/07/20 07:07:13;;;;;;;5.35;3.35;;;21.50;99.90;;;;;;5012274;28;20030;-86
2021/07/20 07:09:41;;;;;;;5.00;3.22;;;21.90;99.90;;;;;;5010454;28;20034;-86
2021/07/20 07:12:08;;;;;;;5.60;3.35;;;22.20;99.90;;;;;;4980282;28;20041;-87
2021/07/20 07:14:35;;;;;;;8.60;3.75;;;22.50;99.90;;;;;;4967355;28;20088;-87
2021/07/20 07:17:06;;;;;;;5.82;3.72;;;22.40;99.90;;;;;;4996660;28;20034;-89
2021/07/20 07:19:33;;;;;;;5.65;3.35;;;22.50;99.90;;;;;;4994244;28;20024;-87
2021/07/20 07:22:00;;;;;;;4.90;3.75;;;22.70;99.90;;;;;;4992694;28;20476;-86
2021/07/20 07:24:26;;;;;;;5.95;3.70;;;22.80;99.90;;;;;;4960700;28;20464;-86
2021/07/20 07:26:53;;;;;;;4.88;3.08;;;23.20;99.90;;;;;;4964346;28;20128;-84
2021/07/20 07:29:21;;;;;;;5.53;3.72;;;23.80;99.90;;;;;;4996338;28;20100;-86
2021/07/20 07:31:48;;;;;;;8.73;4.03;;;24.30;99.90;;;;;;5000524;28;20042;-85
2021/07/20 07:34:15;;;;;;;4.82;3.10;;;24.80;97.80;;;;;;5022550;28;20488;-89
2021/07/20 07:36:46;;;;;;;7.57;3.30;;;25.20;95.20;;;;;;5001927;28;20033;-86
2021/07/20 07:39:13;;;;;;;10.20;3.83;;;25.50;93.40;;;;;;4998482;28;20096;-85
2021/07/20 07:41:52;;;;;;;5.60;3.28;;;25.70;91.60;;;;;;4963324;28;20035;-85
2021/07/20 07:44:19;;;;;;;6.75;3.50;;;25.70;88.60;;;;;;5019847;28;20476;-85
2021/07/20 07:46:46;;;;;;;6.20;3.65;;;25.70;90.10;;;;;;4989649;28;20037;-86
2021/07/20 07:49:13;;;;;;;10.52;3.65;;;25.70;90.10;;;;;;4987707;28;20025;-85
2021/07/20 07:51:41;;;;;;;4.80;3.70;;;25.70;89.80;;;;;;5004506;28;20034;-88
2021/07/20 07:54:07;;;;;;;7.45;4.15;;;25.50;89.00;;;;;;4995020;28;20124;-87
2021/07/20 07:56:34;;;;;;;5.05;3.70;;;25.30;86.70;;;;;;4965107;28;20041;-87
2021/07/20 07:59:01;;;;;;;7.20;3.95;;;25.00;88.30;;;;;;4967681;28;20034;-86
2021/07/20 08:01:30;;;;;;;5.75;3.75;;;24.70;85.90;;;;;;4989106;28;20149;-87
2021/07/20 08:03:57;;;;;;;5.78;3.67;;;24.40;88.90;;;;;;5007096;28;20800;-86
2021/07/20 08:06:26;;;;;;;7.32;4.30;;;24.20;86.40;;;;;;4973419;28;20033;-88
2021/07/20 08:08:55;;;;;;;5.85;3.83;;;23.60;82.10;;;;;;5005630;28;20034;-87
2021/07/20 08:11:23;;;;;;;6.65;4.13;;;22.70;77.10;;;;;;5005460;28;20037;-86
2021/07/20 08:13:51;;;;;;;7.03;4.22;;;22.10;81.70;;;;;;4986859;28;20023;-86
2021/07/20 08:16:20;;;;;;;6.75;4.65;;;21.70;88.00;;;;;;4992169;28;20121;-84
2021/07/20 08:18:46;;;;;;;5.20;4.20;;;21.30;89.20;;;;;;5005753;28;20127;-87
2021/07/20 08:21:14;;;;;;;6.55;4.57;;;20.80;89.20;;;;;;4988013;28;20839;-84
2021/07/20 08:23:40;;;;;;;7.82;4.50;;;20.50;93.00;;;;;;4967549;28;20034;-86
2021/07/20 08:26:13;;;;;;;7.47;4.95;;;20.30;91.90;;;;;;4971583;28;20815;-85
2021/07/20 08:28:56;;;;;;;7.13;4.50;;;20.10;90.30;;;;;;5004714;28;20037;-85
2021/07/20 08:31:23;;;;;;;9.23;4.80;;;19.90;88.90;;;;;;4981527;28;20490;-84
2021/07/20 08:33:55;;;;;;;10.15;5.53;;;19.70;91.40;;;;;;4987149;28;20029;-85
2021/07/20 08:36:22;;;;;;;9.07;4.88;;;19.90;92.30;;;;;;4988804;28;20034;-83
2021/07/20 08:38:51;;;;;;;8.13;5.22;;;19.80;93.20;;;;;;4988423;28;20108;-82
2021/07/20 08:41:49;;;;;;;8.98;4.90;;;20.00;91.50;;;;;;5012048;28;20022;-86
2021/07/20 08:44:35;;;;;;;9.38;4.32;;;20.10;93.90;;;;;;5007929;28;20038;-85
2021/07/20 08:47:11;;;;;;;8.48;4.95;;;20.10;95.60;;;;;;5020070;28;20399;-87
2021/07/20 08:49:56;;;;;;;8.73;5.38;;;20.10;94.00;;;;;;4995091;28;20100;-84
2021/07/20 08:52:29;;;;;;;7.65;4.78;;;20.30;95.00;;;;;;5002408;28;20034;-86
2021/07/20 08:55:03;;;;;;;5.57;3.92;;;20.50;96.20;;;;;;5010889;28;20056;-86
2021/07/20 08:57:55;;;;;;;5.97;4.47;;;20.80;96.70;;;;;;4989613;28;20494;-87
2021/07/20 09:00:41;;;;;;;7.13;4.65;;;21.10;96.90;;;;;;4978234;28;20638;-85
2021/07/20 09:03:35;;;;;;;9.75;4.57;;;21.40;93.70;;;;;;5004562;28;20030;-87
2021/07/20 09:06:18;;;;;;;7.60;4.70;;;21.40;96.50;;;;;;5004304;28;20686;-87
2021/07/20 09:08:52;;;;;;;7.68;4.40;;;21.70;95.40;;;;;;4986544;28;20096;-85
2021/07/20 09:11:47;;;;;;;7.43;4.15;;;21.90;96.30;;;;;;5010014;28;21266;-87
2021/07/20 09:14:34;;;;;;;6.13;4.20;;;22.00;95.40;;;;;;5006571;28;20061;-86
2021/07/20 09:17:16;;;;;;;9.07;4.50;;;21.90;97.20;;;;;;5007162;28;20034;-86
2021/07/20 09:20:08;;;;;;;8.20;4.82;;;21.90;98.10;;;;;;4973122;28;20026;-87
2021/07/20 09:22:39;;;;;;;9.88;5.50;;;21.90;94.90;;;;;;5004647;28;20062;-88
2021/07/20 09:25:16;;;;;;;7.25;4.93;;;21.70;89.60;;;;;;4975483;28;20498;-85
2021/07/20 09:28:08;;;;;;;8.43;4.30;;;21.90;93.00;;;;;;4986868;28;20476;-84
2021/07/20 09:30:43;;;;;;;8.52;5.13;;;22.00;94.60;;;;;;4985083;28;20034;-86
2021/07/20 09:33:28;;;;;;;;;;;22.10;96.30;;;;;;5002161;28;20400;-85
2021/07/20 09:36:00;;;;;;;7.25;4.68;;;22.20;95.30;;;;;;5019657;28;19909;-85
2021/07/20 09:38:35;;;;;;;8.10;4.40;;;22.30;94.40;;;;;;4999641;28;20034;-86
2021/07/20 09:41:33;;;;;;;8.45;4.80;;;22.30;89.60;;;;;;5005033;28;20027;-85
2021/07/20 09:44:19;;;;;;;9.05;4.63;;;22.30;85.00;;;;;;5004918;28;20034;-89
2021/07/20 09:46:54;;;;;;;;;;;22.10;89.10;;;;;;5015820;28;20557;-87
2021/07/20 09:49:38;;;;;;;7.72;4.90;;;22.00;88.70;;;;;;5033935;28;19910;-85
2021/07/20 09:52:35;;;;;;;6.63;4.95;;;21.90;83.20;;;;;;5008573;28;20710;-86
2021/07/20 09:55:13;;;;;;;9.48;5.60;;;21.80;90.40;;;;;;5010204;28;20041;-89
2021/07/20 09:58:08;;;;;;;9.63;5.82;;;21.60;84.50;;;;;;4997769;28;20128;-88
2021/07/20 10:00:41;;;;;;;10.32;5.68;;;21.50;84.60;;;;;;5010177;28;20056;-87
2021/07/20 10:03:38;;;;;;;8.50;5.35;;;21.40;91.50;;;;;;5014400;28;20022;-84
2021/07/20 10:06:20;;;;;;;8.55;5.45;;;21.30;87.00;;;;;;5009218;28;20101;-86
2021/07/20 10:08:49;;;;;;;11.48;5.30;;;21.20;86.10;;;;;;4992609;28;20060;-85
2021/07/20 10:11:41;;;;;;;9.48;5.45;;;21.40;91.30;;;;;;5009722;28;20026;-85
2021/07/20 10:14:13;;;;;;;7.63;5.32;;;21.50;90.40;;;;;;5013122;28;20025;-86
2021/07/20 10:16:57;;;;;;;8.82;4.57;;;21.80;90.80;;;;;;5009277;28;20030;-86
2021/07/20 10:19:37;;;;;;;9.05;5.45;;;22.00;92.00;;;;;;4993720;28;20057;-87
2021/07/20 10:22:06;;;;;;;8.85;5.30;;;22.20;84.10;;;;;;5007204;28;20033;-85
2021/07/20 10:24:36;;;;;;;6.75;4.47;;;22.20;85.20;;;;;;4995384;28;20548;-87
2021/07/20 10:27:08;;;;;;;6.60;4.80;;;22.20;90.10;;;;;;5015628;28;20045;-87
2021/07/20 10:29:58;;;;;;;8.23;5.68;;;22.10;90.50;;;;;;4978366;28;20184;-88
2021/07/20 10:32:41;;;;;;;8.75;5.40;;;22.20;91.40;;;;;;5009398;28;20026;-85
2021/07/20 10:35:15;;;;;;;8.77;5.07;;;22.10;91.70;;;;;;4993739;28;20025;-87
2021/07/20 10:37:45;;;;;;;7.65;5.30;;;22.10;94.50;;;;;;4976101;28;20778;-88
2021/07/20 10:40:17;;;;;;;8.60;5.55;;;22.00;92.40;;;;;;4974801;28;20022;-87
2021/07/20 10:43:00;;;;;;;11.50;6.18;;;21.90;83.30;;;;;;5006649;28;20057;-86
2021/07/20 10:45:32;;;;;;;8.38;5.47;;;21.70;83.80;;;;;;4996680;28;20042;-88
2021/07/20 10:48:20;;;;;;;7.15;4.95;;;21.60;90.00;;;;;;5006677;28;20045;-93
2021/07/20 10:51:08;;;;;;;7.70;4.60;;;21.60;90.40;;;;;;5006275;28;20719;-87
2021/07/20 10:53:42;;;;;;;11.50;5.57;;;21.60;89.40;;;;;;5006483;28;20034;-85
2021/07/20 10:56:16;;;;;;;7.88;4.70;;;21.60;85.00;;;;;;5005196;28;20495;-85
2021/07/20 10:59:04;;;;;;;6.93;4.53;;;21.70;86.10;;;;;;5008685;28;20030;-86
2021/07/20 11:01:41;;;;;;;10.27;5.32;;;21.80;85.30;;;;;;5009607;28;20030;-83
2021/07/20 11:04:38;;;;;;;6.63;4.60;;;21.90;91.90;;;;;;5013249;28;20052;-83
2021/07/20 11:07:07;;;;;;;9.50;5.80;;;22.10;92.50;;;;;;5011975;28;20492;-87
2021/07/20 11:09:34;;;;;;;8.38;5.38;;;22.20;91.70;;;;;;4991501;28;20100;-91
2021/07/20 11:12:04;;;;;;;8.32;5.25;;;22.30;90.00;;;;;;4988590;28;20026;-86
2021/07/20 11:14:35;;;;;;;8.23;4.88;;;22.30;90.00;;;;;;5019152;28;20038;-87
2021/07/20 11:17:01;;;;;;;7.10;4.82;;;22.40;90.80;;;;;;4982794;28;20036;-87
2021/07/20 11:19:28;;;;;;;7.28;5.13;;;22.40;87.70;;;;;;4974176;28;20038;-85
2021/07/20 11:21:56;;;;;;;10.45;5.90;;;22.30;91.30;;;;;;4970920;28;20121;-85
2021/07/20 11:24:23;;;;;;;7.75;5.05;;;22.20;92.30;;;;;;4974269;28;20064;-88
2021/07/20 11:26:49;;;;;;;7.22;4.80;;;22.10;88.90;;;;;;4981028;28;20065;-86
2021/07/20 11:29:16;;;;;;;10.10;6.05;;;22.00;88.40;;;;;;4988145;28;20488;-87
2021/07/20 11:31:51;;;;;;;6.80;4.93;;;21.90;83.80;;;;;;4990252;28;20033;-88
2021/07/20 11:34:28;;;;;;;8.63;4.80;;;21.90;86.50;;;;;;4992814;28;20033;-85
2021/07/20 11:37:00;;;;;;;9.18;5.82;;;22.00;79.50;;;;;;5008087;28;20284;-89
2021/07/20 11:39:35;;;;;;;9.95;4.85;;;22.10;82.10;;;;;;4985044;28;20034;-87
2021/07/20 11:42:14;;;;;;;8.30;4.40;;;22.30;80.10;;;;;;4984209;28;20040;-86
2021/07/20 11:44:53;;;;;;;9.45;5.10;;;22.50;82.60;;;;;;5011253;28;20096;-85
2021/07/20 11:47:32;;;;;;;6.85;4.60;;;22.50;78.50;;;;;;4995979;28;20153;-86
2021/07/20 11:50:06;;;;;;;9.10;5.18;;;22.50;86.40;;;;;;5015066;28;20104;-86
2021/07/20 11:52:50;;;;;;;8.00;4.93;;;22.50;90.40;;;;;;4997095;28;20116;-86
2021/07/20 11:55:28;;;;;;;9.15;5.00;;;22.40;91.10;;;;;;5019023;28;20033;-86
2021/07/20 11:58:45;;;;;;;9.20;5.07;;;22.50;90.60;;;;;;4988931;28;20035;-85
2021/07/20 12:01:43;;;;;;;8.87;4.70;;;22.70;88.20;;;;;;5016266;28;20500;-85
2021/07/20 12:04:27;;;;;;;7.35;4.25;;;23.00;85.50;;;;;;4954464;28;20921;-83
2021/07/20 12:07:28;;;;;;;7.85;4.75;;;23.30;78.30;;;;;;4997703;28;20026;-89
2021/07/20 12:10:19;;;;;;;7.45;4.50;;;23.80;80.50;;;;;;5003759;28;20030;-89
2021/07/20 12:12:49;;;;;;;7.95;5.20;;;24.30;75.20;;;;;;5004371;28;20041;-90
2021/07/20 12:15:17;;;;;;;7.60;4.50;;;24.60;74.60;;;;;;4989203;28;20033;-85
2021/07/20 12:17:43;;;;;;;6.05;4.78;;;24.80;71.80;;;;;;4973843;28;20036;-87
2021/07/20 12:20:11;;;;;;;9.15;5.18;;;24.70;69.60;;;;;;5004872;28;20400;-89
2021/07/20 12:22:39;;;;;;;7.07;4.68;;;24.60;70.10;;;;;;4989537;28;20030;-86
2021/07/20 12:25:06;;;;;;;7.55;4.93;;;24.20;70.00;;;;;;4989457;28;20029;-88
2021/07/20 12:27:37;;;;;;;6.72;4.85;;;23.80;69.90;;;;;;5003946;28;20037;-87
2021/07/20 12:30:05;;;;;;;6.80;4.47;;;23.50;70.60;;;;;;5002182;28;20033;-86
2021/07/20 12:32:31;;;;;;;6.32;4.30;;;23.20;79.00;;;;;;5002938;28;20026;-86
2021/07/20 12:34:58;;;;;;;6.63;4.05;;;23.10;84.20;;;;;;5005044;28;20033;-87
2021/07/20 12:37:24;;;;;;;8.07;4.63;;;23.10;86.10;;;;;;4996184;28;20117;-87
2021/07/20 12:39:54;;;;;;;7.70;4.85;;;23.20;80.10;;;;;;4984754;28;20107;-86
2021/07/20 12:42:22;;;;;;;7.10;4.85;;;23.20;78.50;;;;;;5001081;28;20031;-85
2021/07/20 12:45:05;;;;;;;7.30;4.72;;;23.30;83.90;;;;;;5025714;28;20022;-87
2021/07/20 12:47:46;;;;;;;6.45;4.50;;;23.60;86.50;;;;;;4988310;28;20040;-88
2021/07/20 12:50:20;;;;;;;6.15;4.00;;;24.00;85.60;;;;;;4984395;28;20488;-87
2021/07/20 12:52:48;;;;;;;9.30;5.38;;;24.40;78.60;;;;;;4983661;28;20060;-87
2021/07/20 12:55:20;;;;;;;9.02;5.13;;;24.60;79.90;;;;;;4988824;28;20938;-86
2021/07/20 12:58:07;;;;;;;7.13;4.93;;;24.70;82.90;;;;;;4987100;28;20045;-87
2021/07/20 13:00:35;;;;;;;7.03;5.18;;;24.80;78.70;;;;;;4997261;28;20034;-84
2021/07/20 13:03:04;;;;;;;6.32;3.95;;;25.00;68.90;;;;;;5010826;28;20052;-86
2021/07/20 13:05:32;;;;;;;6.47;4.32;;;25.00;64.80;;;;;;5006995;28;20072;-87
2021/07/20 13:07:59;;;;;;;6.78;3.92;;;25.20;68.80;;;;;;5009911;28;20045;-83
2021/07/20 13:10:31;;;;;;;6.35;3.92;;;25.50;67.60;;;;;;5002400;28;20041;-84
2021/07/20 13:13:01;;;;;;;6.10;4.28;;;25.90;70.70;;;;;;5006036;28;20149;-84
2021/07/20 13:15:27;;;;;;;6.60;3.90;;;26.10;72.00;;;;;;4982220;28;20061;-83
2021/07/20 13:17:56;;;;;;;6.38;4.05;;;26.20;69.40;;;;;;4991455;28;20103;-85
2021/07/20 13:20:25;;;;;;;6.88;3.95;;;26.20;66.90;;;;;;5003197;28;20033;-84
2021/07/20 13:22:51;;;;;;;6.38;4.38;;;26.50;66.90;;;;;;5017381;28;20024;-88